BXP weather

Biała Podlaska Airfield
Biała Podlaska, Lublin, Poland

Public forecast

Using degrees Celsius for public forecast. Weather courtesy of forecast.io.

Closest aviation weather report (METAR) to Biała Podlaska Airfield

Report is more than 2 hours old.

Closest report is Brest Airport, 29.0 nm (53.7 km) ENE. Retrieved 2020/02/17 13:30 UTC (5 hours ago):

UMBB 171330Z 22007G12MPS CAVOK 12/02 Q1013 R29/CLRD// NOSIG

Closest aviation forecast (TAF) to Biała Podlaska Airfield

Forecast is more than 12 hours old.

Closest forecast is Brest Airport, 29.0 nm (53.7 km) ENE. Retrieved 2018/08/29 12:21 UTC (1 year ago):

TAF UMBB 291405Z 2912/2924 34005MPS 6000 BKN015 TEMPO 2915/2918 3000 -SHRA SCT020CB TEMPO 2918/2924 2000 BR BKN005